E16

San Martin Airport

San Martin, California, USA
METAR KE16 182250Z AUTO 34008KT 10SM CLR 17/07 A3031 RMK AO2
Observed Flight Rules
Dec-18 @ 22:50 UTC (28 minutes ago) Visual Flight Rules
Wind Visibility Clouds
340° at 8 knots 10 miles
  • Clear skies
Temperatures Readings
Current 17°C / 63°F
Dewpoint 7°C / 45°F
Humidity 52%
Altimeter 30.31" Hg
Pressure 1026 hPa
Elevation 86
METAR KE16 182250Z AUTO 34008KT 10SM CLR 17/07 A3031 RMK AO2
Observed Flight Rules
Dec-18 @ 22:50 UTC
(28 minutes ago)
VFR
Wind Visibility
340° at 8 knots 10 miles
Clouds
  • Clear skies
Temperature Dewpoint
17°C / 63°F 7°C / 45°F
Humidity Altimeter Pressure
52% 30.31" Hg 1026 hPa